Disclaimer

Please do not use the information listed here in-flight or in-navigation, as they are not provided to us by the airports but are provided by volunteers, so they might be outdated.

Search


Regions


Airport information page

Radio informations:
DIJON TWR - 118.325 MHz
DIJON GND - 122.1 MHz
DIJON APP - 142.45 MHz

Airport informations:
Latitude: 47° 16' 08.00" N
Longitude: 005° 05' 24.00" E
Elevation: 726 feet - 221 meters
Operating hours: Remarks
Operating agency: Military
Timezone: UTC+1(+2DT) - Last Sunday in March to last Sunday in October
Fuel: Jet A1+, Jet A1 with icing inhibitor.

JP-8, SemiKeroscene MIL Spec T-83133, without icing inhibitor

100/130 MIL Spec, low lead, aviation gasoline (BLUE)

Runway information:
02/20 - 5905 x 118 feet< - >1800 x 36 meters
18/36 - 7874 x 148 feet< - >2400 x 45 meters

Recent METARs:
LFSD 180830Z AUTO 36009KT CAVOK 02/M01 Q1020
LFSD 180900Z AUTO 36010KT CAVOK 02/M01 Q1020
LFSD 180930Z AUTO 02009KT CAVOK 04/M00 Q1020

Airport on the map: